createdAt,value
2019-05-11T00:01:16.100Z,10.87
2019-05-11T00:07:14.473Z,10.84
2019-05-11T00:09:56.987Z,10.86
2019-05-11T00:12:14.754Z,10.87
2019-05-11T00:14:44.013Z,10.84
2019-05-11T00:17:13.299Z,10.86
2019-05-11T00:19:42.572Z,10.88
2019-05-11T00:22:11.825Z,10.82
2019-05-11T00:24:41.184Z,10.79
2019-05-11T00:27:10.491Z,10.73
2019-05-11T00:29:40.030Z,10.71
2019-05-11T00:32:15.509Z,10.80
2019-05-11T01:06:06.827Z,10.69
2019-05-11T01:08:36.437Z,10.71
2019-05-11T01:11:06.146Z,10.63
2019-05-11T01:13:35.460Z,10.61
2019-05-11T01:16:04.880Z,10.59
2019-05-11T01:18:34.744Z,10.63
2019-05-11T01:21:04.053Z,10.61
2019-05-11T01:23:46.768Z,10.61
2019-05-11T01:26:16.057Z,10.63
2019-05-11T01:28:45.397Z,10.62
2019-05-11T01:37:57.579Z,10.44
2019-05-11T01:40:29.087Z,10.38
2019-05-11T01:42:58.822Z,10.26
2019-05-11T01:45:31.658Z,10.34
2019-05-11T01:48:02.937Z,10.29
2019-05-11T01:50:32.782Z,10.27
2019-05-11T02:00:05.485Z,10.17
2019-05-11T02:03:10.963Z,10.10
2019-05-11T02:05:45.680Z,10.16
2019-05-11T02:08:20.220Z,10.16
2019-05-11T02:11:16.440Z,10.19
2019-05-11T02:13:45.718Z,10.20
2019-05-11T02:16:15.332Z,10.10
2019-05-11T02:18:44.849Z,10.11
2019-05-11T02:21:14.125Z,10.14
2019-05-11T02:23:43.374Z,10.16
2019-05-11T02:26:12.647Z,10.16
2019-05-11T02:28:42.515Z,10.15
2019-05-11T02:31:11.805Z,10.16
2019-05-11T02:33:41.034Z,10.11
2019-05-11T02:36:10.329Z,10.12
2019-05-11T02:38:39.580Z,10.13
2019-05-11T02:41:09.144Z,10.23
2019-05-11T02:43:38.770Z,10.25
2019-05-11T02:46:08.056Z,10.17
2019-05-11T02:48:37.329Z,10.16
2019-05-11T02:51:07.743Z,10.13
2019-05-11T02:53:44.692Z,10.10
2019-05-11T02:56:14.327Z,9.89
2019-05-11T02:58:44.926Z,10.05
2019-05-11T03:01:14.240Z,10.02
2019-05-11T03:03:43.530Z,10.01
2019-05-11T03:06:13.137Z,10.00
2019-05-11T03:08:42.409Z,9.97
2019-05-11T03:11:11.717Z,9.99
2019-05-11T03:13:40.946Z,9.97
2019-05-11T03:16:10.553Z,9.94
2019-05-11T03:18:39.801Z,9.95
2019-05-11T03:21:09.145Z,9.94
2019-05-11T03:23:38.431Z,9.87
2019-05-11T03:26:07.726Z,9.89
2019-05-11T03:28:36.980Z,9.87
2019-05-11T03:31:06.296Z,9.84
2019-05-11T03:33:35.551Z,9.92
2019-05-11T03:36:04.829Z,9.82
2019-05-11T03:38:34.074Z,9.89
2019-05-11T03:41:03.350Z,9.83
2019-05-11T03:43:32.600Z,9.87
2019-05-11T03:46:02.030Z,9.78
2019-05-11T03:48:31.292Z,9.83
2019-05-11T03:51:01.000Z,9.87
2019-05-11T03:53:30.327Z,9.81
2019-05-11T03:56:02.340Z,9.80
2019-05-11T03:58:33.040Z,9.80
2019-05-11T04:01:02.620Z,9.80
2019-05-11T04:03:31.910Z,9.82
2019-05-11T04:06:01.212Z,9.72
2019-05-11T04:08:30.506Z,9.71
2019-05-11T04:10:59.712Z,9.75
2019-05-11T04:13:28.978Z,9.73
2019-05-11T04:15:58.233Z,9.71
2019-05-11T04:18:27.501Z,9.73
2019-05-11T04:20:56.750Z,9.76
2019-05-11T04:23:26.159Z,9.73
2019-05-11T04:25:55.479Z,9.71
2019-05-11T04:28:24.755Z,9.68
2019-05-11T04:30:54.010Z,9.73
2019-05-11T04:33:23.254Z,9.73
2019-05-11T04:35:52.545Z,9.72
2019-05-11T04:38:21.804Z,9.73
2019-05-11T04:40:51.039Z,9.79
2019-05-11T04:43:20.287Z,9.74
2019-05-11T04:45:49.914Z,9.75
2019-05-11T04:48:19.159Z,9.82
2019-05-11T04:50:48.674Z,9.80
2019-05-11T04:53:17.939Z,9.86
2019-05-11T04:55:47.180Z,9.91
2019-05-11T04:58:18.552Z,9.93
2019-05-11T05:00:47.771Z,9.88
2019-05-11T05:03:17.047Z,9.88
2019-05-11T05:05:46.274Z,9.90
2019-05-11T05:08:15.581Z,9.97
2019-05-11T05:10:45.190Z,10.04
2019-05-11T05:13:14.468Z,9.98
2019-05-11T05:15:43.698Z,9.98
2019-05-11T05:18:13.265Z,9.95
2019-05-11T05:20:44.022Z,10.04
2019-05-11T05:23:13.451Z,10.04
2019-05-11T05:25:42.725Z,10.05
2019-05-11T05:28:11.996Z,10.04
2019-05-11T05:31:00.659Z,9.98
2019-05-11T05:33:30.355Z,9.98
2019-05-11T05:35:59.658Z,9.95
2019-05-11T05:38:28.978Z,10.02
2019-05-11T05:40:58.284Z,9.98
2019-05-11T05:43:28.665Z,10.00
2019-05-11T05:45:58.128Z,10.01
2019-05-11T05:48:29.551Z,10.04
2019-05-11T05:51:04.663Z,10.04
2019-05-11T05:53:34.494Z,10.02
2019-05-11T05:56:04.136Z,10.04
2019-05-11T05:58:34.625Z,10.04
2019-05-11T06:01:03.918Z,10.02
2019-05-11T06:03:50.466Z,9.98
2019-05-11T06:06:19.742Z,10.04
2019-05-11T06:08:49.295Z,10.14
2019-05-11T06:11:19.442Z,10.07
2019-05-11T06:13:49.758Z,10.02
2019-05-11T06:16:21.337Z,10.05
2019-05-11T06:18:51.038Z,10.12
2019-05-11T06:21:20.384Z,10.16
2019-05-11T06:23:49.716Z,10.29
2019-05-11T06:26:19.041Z,10.34
2019-05-11T06:28:48.318Z,10.39
2019-05-11T06:31:17.628Z,10.45
2019-05-11T06:33:46.985Z,10.40
2019-05-11T06:36:16.349Z,10.38
2019-05-11T06:38:45.994Z,10.25
2019-05-11T06:41:15.403Z,10.27
2019-05-11T06:44:00.776Z,10.30
2019-05-11T06:46:16.897Z,10.20
2019-05-11T06:48:49.428Z,10.29
2019-05-11T06:51:18.823Z,10.24
2019-05-11T06:53:48.141Z,10.22
2019-05-11T06:56:17.455Z,10.26
2019-05-11T06:58:46.764Z,10.14
2019-05-11T07:01:16.382Z,10.32
2019-05-11T07:03:49.680Z,10.31
2019-05-11T07:06:19.128Z,10.33
2019-05-11T07:08:48.469Z,10.29
2019-05-11T07:11:17.807Z,10.31
2019-05-11T07:13:47.150Z,10.45
2019-05-11T07:16:19.635Z,10.42
2019-05-11T07:18:48.901Z,10.56
2019-05-11T07:21:18.698Z,10.54
2019-05-11T07:23:48.422Z,10.53
2019-05-11T07:26:18.100Z,10.59
2019-05-11T07:28:47.423Z,10.52
2019-05-11T07:31:16.792Z,10.67
2019-05-11T07:33:48.471Z,10.73
2019-05-11T07:39:48.594Z,10.88
2019-05-11T07:42:18.371Z,10.80
2019-05-11T07:44:48.191Z,10.84
2019-05-11T07:47:18.642Z,10.96
2019-05-11T07:49:48.840Z,10.84
2019-05-11T07:52:18.512Z,10.83
2019-05-11T07:54:52.568Z,10.80
2019-05-11T07:57:18.861Z,10.90
2019-05-11T07:59:48.745Z,10.89
2019-05-11T08:02:18.008Z,10.89
2019-05-11T08:04:48.147Z,10.88
2019-05-11T08:07:18.217Z,10.84
2019-05-11T08:09:48.295Z,10.79
2019-05-11T08:12:19.239Z,10.82
2019-05-11T08:14:59.122Z,10.81
2019-05-11T08:17:20.096Z,10.84
2019-05-11T08:19:49.359Z,10.75
2019-05-11T08:22:22.783Z,10.85
2019-05-11T08:24:49.644Z,10.91
2019-05-11T08:27:19.005Z,11.03
2019-05-11T08:29:50.706Z,11.08
2019-05-11T08:32:20.258Z,11.09
2019-05-11T08:34:49.559Z,11.15
2019-05-11T08:37:19.041Z,11.24
2019-05-11T08:39:48.347Z,11.38
2019-05-11T08:42:18.035Z,11.27
2019-05-11T08:44:48.401Z,11.27
2019-05-11T08:47:17.932Z,11.34
2019-05-11T08:49:48.405Z,11.47
2019-05-11T08:52:28.069Z,11.74
2019-05-11T08:54:57.921Z,11.75
2019-05-11T08:57:28.515Z,11.57
2019-05-11T08:59:58.307Z,11.43
2019-05-11T09:02:27.939Z,11.50
2019-05-11T09:04:58.934Z,11.47
2019-05-11T09:07:29.630Z,11.44
2019-05-11T09:09:58.985Z,11.50
2019-05-11T09:12:28.948Z,11.53
2019-05-11T09:14:59.775Z,11.44
2019-05-11T09:17:29.108Z,11.61
2019-05-11T09:19:58.841Z,11.43
2019-05-11T09:22:28.524Z,11.56
2019-05-11T09:24:58.452Z,11.36
2019-05-11T09:27:28.621Z,11.27
2019-05-11T09:29:58.835Z,11.22
2019-05-11T09:32:28.689Z,11.12
2019-05-11T09:34:58.171Z,11.03
2019-05-11T09:37:27.842Z,10.94
2019-05-11T09:39:58.316Z,10.96
2019-05-11T09:42:28.578Z,11.06
2019-05-11T09:44:58.010Z,11.06
2019-05-11T09:47:27.917Z,11.01
2019-05-11T09:49:58.277Z,10.95
2019-05-11T09:52:32.486Z,11.08
2019-05-11T09:55:02.871Z,11.05
2019-05-11T09:57:32.197Z,11.06
2019-05-11T10:00:01.535Z,11.16
2019-05-11T10:02:30.744Z,11.23
2019-05-11T10:05:00.023Z,11.41
2019-05-11T10:07:32.452Z,11.38
2019-05-11T10:10:00.366Z,11.66
2019-05-11T10:12:37.830Z,11.37
2019-05-11T10:15:08.530Z,11.37
2019-05-11T10:17:38.679Z,11.58
2019-05-11T10:20:09.416Z,11.43
2019-05-11T10:22:38.822Z,11.59
2019-05-11T10:25:19.792Z,11.68
2019-05-11T10:27:49.265Z,11.70
2019-05-11T10:30:18.932Z,11.64
2019-05-11T10:32:48.618Z,11.60
2019-05-11T10:35:18.515Z,11.66
2019-05-11T10:37:47.981Z,11.60
2019-05-11T10:40:23.651Z,11.75
2019-05-11T10:42:52.962Z,11.83
2019-05-11T10:45:22.328Z,11.86
2019-05-11T10:47:53.901Z,11.90
2019-05-11T10:50:22.659Z,11.86
2019-05-11T10:52:51.896Z,11.70
2019-05-11T10:55:21.147Z,11.84
2019-05-11T10:57:50.392Z,12.13
2019-05-11T11:00:20.088Z,12.32
2019-05-11T11:02:49.331Z,12.64
2019-05-11T11:05:18.952Z,12.54
2019-05-11T11:07:48.580Z,12.51
2019-05-11T11:10:18.411Z,12.47
2019-05-11T11:12:49.056Z,12.69
2019-05-11T11:15:18.750Z,12.78
2019-05-11T11:17:48.727Z,12.88
2019-05-11T11:20:18.755Z,13.09
2019-05-11T11:22:48.521Z,13.34
2019-05-11T11:25:18.184Z,13.63
2019-05-11T11:27:48.716Z,13.74
2019-05-11T11:30:18.363Z,14.16
2019-05-11T11:32:48.399Z,14.22
2019-05-11T11:35:18.683Z,13.98
2019-05-11T11:37:48.306Z,13.90
2019-05-11T11:40:18.343Z,13.94
2019-05-11T11:42:47.995Z,14.04
2019-05-11T11:45:20.643Z,14.20
2019-05-11T11:47:52.635Z,14.64
2019-05-11T11:50:21.980Z,14.90
2019-05-11T11:52:51.952Z,14.98
2019-05-11T11:55:24.138Z,15.76
2019-05-11T11:57:53.939Z,15.26
2019-05-11T12:00:23.373Z,15.36
2019-05-11T12:02:52.631Z,15.29
2019-05-11T12:05:21.871Z,15.46
2019-05-11T12:07:51.161Z,14.92
2019-05-11T12:10:20.392Z,14.30
2019-05-11T12:12:49.647Z,14.21
2019-05-11T12:15:19.194Z,14.40
2019-05-11T12:17:48.838Z,14.45
2019-05-11T12:20:18.330Z,14.88
2019-05-11T12:22:50.967Z,14.91
2019-05-11T12:25:20.999Z,15.23
2019-05-11T12:27:50.237Z,15.47
2019-05-11T12:30:19.573Z,15.49
2019-05-11T12:32:50.274Z,15.17
2019-05-11T12:35:20.440Z,15.06
2019-05-11T12:38:07.607Z,15.20
2019-05-11T12:40:36.108Z,15.28
2019-05-11T12:43:08.167Z,15.15
2019-05-11T12:45:38.708Z,14.98
2019-05-11T12:48:08.982Z,14.74
2019-05-11T12:50:39.442Z,14.53
2019-05-11T12:53:19.813Z,14.28
2019-05-11T12:55:49.194Z,13.81
2019-05-11T12:58:20.162Z,13.53
2019-05-11T13:00:55.574Z,13.55
2019-05-11T13:03:24.838Z,13.78
2019-05-11T13:05:54.401Z,14.16
2019-05-11T13:08:23.670Z,14.35
2019-05-11T13:10:52.968Z,15.04
2019-05-11T13:13:22.195Z,14.90
2019-05-11T13:15:51.436Z,14.79
2019-05-11T13:18:21.026Z,14.69
2019-05-11T13:20:50.274Z,14.71
2019-05-11T13:23:19.763Z,14.60
2019-05-11T13:25:49.000Z,14.70
2019-05-11T13:28:18.614Z,15.04
2019-05-11T13:30:48.781Z,15.71
2019-05-11T13:33:19.161Z,15.68
2019-05-11T13:35:48.470Z,16.61
2019-05-11T13:38:18.004Z,17.85
2019-05-11T13:40:48.739Z,18.54
2019-05-11T13:43:18.952Z,18.96
2019-05-11T13:45:48.743Z,19.67
2019-05-11T13:48:18.393Z,18.93
2019-05-11T13:50:48.126Z,17.44
2019-05-11T13:53:18.380Z,16.69
2019-05-11T13:55:53.885Z,16.40
2019-05-11T13:58:23.418Z,16.11
2019-05-11T14:00:52.973Z,15.96
2019-05-11T14:03:22.483Z,16.77
2019-05-11T14:05:52.129Z,15.93
2019-05-11T14:08:21.363Z,15.15
2019-05-11T14:10:50.617Z,14.66
2019-05-11T14:13:19.859Z,14.59
2019-05-11T14:15:49.098Z,14.63
2019-05-11T14:18:19.695Z,14.51
2019-05-11T14:20:49.095Z,14.77
2019-05-11T14:23:19.449Z,15.00
2019-05-11T14:25:48.991Z,15.08
2019-05-11T14:28:18.464Z,15.03
2019-05-11T14:30:48.777Z,15.00
2019-05-11T14:33:18.588Z,15.80
2019-05-11T14:35:48.962Z,16.15
2019-05-11T14:38:18.939Z,16.32
2019-05-11T14:40:49.476Z,16.92
2019-05-11T14:43:19.019Z,18.17
2019-05-11T14:45:48.801Z,17.84
2019-05-11T14:48:26.671Z,17.70
2019-05-11T14:50:49.602Z,18.40
2019-05-11T14:53:18.846Z,18.01
2019-05-11T14:55:48.872Z,19.80
2019-05-11T14:58:19.741Z,19.80
2019-05-11T15:00:53.360Z,19.00
2019-05-11T15:03:22.737Z,17.42
2019-05-11T15:05:52.014Z,17.28
2019-05-11T15:08:40.620Z,18.60
2019-05-11T15:11:08.822Z,18.91
2019-05-11T15:13:38.358Z,18.91
2019-05-11T15:16:08.219Z,17.19
2019-05-11T15:18:41.435Z,16.83
2019-05-11T15:21:08.595Z,16.45
2019-05-11T15:23:38.173Z,17.07
2019-05-11T15:26:09.980Z,16.54
2019-05-11T15:28:38.405Z,16.98
2019-05-11T15:31:08.220Z,16.83
2019-05-11T15:33:42.902Z,16.38
2019-05-11T15:36:12.516Z,16.32
2019-05-11T15:38:41.778Z,16.01
2019-05-11T15:41:11.161Z,15.87
2019-05-11T15:43:40.457Z,15.41
2019-05-11T15:46:11.057Z,15.43
2019-05-11T15:48:55.789Z,15.10
2019-05-11T15:51:12.358Z,15.05
2019-05-11T15:53:41.642Z,15.02
2019-05-11T15:56:11.046Z,14.73
2019-05-11T15:58:41.826Z,14.47
2019-05-11T16:01:11.158Z,14.44
2019-05-11T16:03:40.500Z,14.51
2019-05-11T16:06:09.844Z,14.48
2019-05-11T16:08:39.091Z,14.76
2019-05-11T16:11:08.472Z,16.68
2019-05-11T16:13:37.967Z,18.38
2019-05-11T16:16:07.438Z,18.86
2019-05-11T16:18:37.086Z,19.25
2019-05-11T16:21:07.633Z,19.59
2019-05-11T16:23:38.914Z,19.72
2019-05-11T16:26:08.596Z,19.72
2019-05-11T16:28:38.665Z,17.85
2019-05-11T16:31:09.251Z,17.24
2019-05-11T16:33:38.864Z,16.99
2019-05-11T16:36:09.027Z,16.61
2019-05-11T16:38:38.656Z,15.70
2019-05-11T16:41:09.147Z,15.25
2019-05-11T16:43:38.679Z,15.53
2019-05-11T16:46:08.642Z,15.62
2019-05-11T16:48:38.471Z,16.58
2019-05-11T16:51:08.826Z,17.14
2019-05-11T16:53:39.127Z,18.21
2019-05-11T16:56:09.132Z,18.61
2019-05-11T16:58:41.102Z,18.41
2019-05-11T17:01:09.686Z,18.91
2019-05-11T17:03:39.567Z,18.64
2019-05-11T17:06:09.358Z,18.64
2019-05-11T17:12:09.900Z,15.98
2019-05-11T17:14:59.818Z,15.24
2019-05-11T17:17:42.317Z,14.98
2019-05-11T17:23:30.873Z,14.61
2019-05-11T17:26:02.865Z,14.51
2019-05-11T17:28:32.600Z,14.37
2019-05-11T17:31:03.478Z,14.39
2019-05-11T17:33:35.194Z,14.63
2019-05-11T17:36:08.810Z,14.47
2019-05-11T17:38:38.988Z,14.28
2019-05-11T17:41:09.528Z,14.47
2019-05-11T17:43:40.147Z,14.42
2019-05-11T17:46:10.055Z,14.49
2019-05-11T17:48:39.630Z,14.53
2019-05-11T17:54:38.443Z,14.99
2019-05-11T17:57:20.587Z,15.08
2019-05-11T17:59:52.084Z,14.95
2019-05-11T18:02:21.647Z,15.17
2019-05-11T18:04:51.173Z,15.15
2019-05-11T18:07:27.475Z,14.71
2019-05-11T18:10:07.977Z,14.70
2019-05-11T18:12:38.980Z,15.06
2019-05-11T18:15:09.263Z,14.99
2019-05-11T18:21:08.653Z,15.80
2019-05-11T18:23:39.175Z,16.22
2019-05-11T18:29:38.079Z,16.66
2019-05-11T18:32:07.601Z,16.13
2019-05-11T18:34:38.097Z,15.41
2019-05-11T18:37:08.801Z,15.32
2019-05-11T18:39:39.097Z,15.23
2019-05-11T18:42:08.697Z,14.77
2019-05-11T18:44:38.486Z,14.80
2019-05-11T18:47:08.780Z,13.96
2019-05-11T18:49:38.732Z,13.63
2019-05-11T18:52:08.378Z,13.37
2019-05-11T18:54:38.504Z,13.13
2019-05-11T18:57:08.547Z,13.17
2019-05-11T18:59:38.494Z,13.02
2019-05-11T19:02:08.475Z,12.78
2019-05-11T19:04:38.209Z,12.66
2019-05-11T19:11:29.574Z,12.50
2019-05-11T19:13:59.932Z,12.41
2019-05-11T19:16:29.261Z,12.36
2019-05-11T19:18:58.758Z,12.30
2019-05-11T19:21:28.098Z,12.19
2019-05-11T19:23:59.305Z,12.20
2019-05-11T19:26:28.793Z,12.08
2019-05-11T19:29:08.995Z,12.04
2019-05-11T19:31:42.510Z,12.00
2019-05-11T19:34:47.811Z,11.92
2019-05-11T19:37:19.427Z,11.87
2019-05-11T19:39:51.285Z,11.73
2019-05-11T19:42:31.414Z,11.70
2019-05-11T19:45:02.327Z,11.64
2019-05-11T19:47:48.435Z,11.53
2019-05-11T19:50:18.013Z,11.46
2019-05-11T19:56:18.258Z,11.10
2019-05-11T19:58:48.965Z,11.33
2019-05-11T20:01:19.357Z,11.21
2019-05-11T20:03:49.638Z,11.19
2019-05-11T20:06:20.144Z,11.18
2019-05-11T20:08:50.185Z,11.16
2019-05-11T20:11:19.481Z,11.12
2019-05-11T20:13:48.736Z,11.09
2019-05-11T20:16:18.811Z,11.00
2019-05-11T20:18:48.123Z,10.97
2019-05-11T20:21:22.697Z,10.85
2019-05-11T20:23:48.704Z,10.78
2019-05-11T20:26:18.178Z,10.75
2019-05-11T20:28:48.263Z,10.76
2019-05-11T20:31:18.496Z,10.66
2019-05-11T20:33:48.179Z,10.67
2019-05-11T20:36:17.857Z,10.60
2019-05-11T20:38:47.732Z,10.59
2019-05-11T20:41:17.073Z,10.53
2019-05-11T20:43:46.334Z,10.50
2019-05-11T20:46:15.571Z,10.39
2019-05-11T20:48:45.480Z,10.39
2019-05-11T20:51:15.123Z,10.33
2019-05-11T20:53:46.344Z,10.24
2019-05-11T20:56:17.687Z,10.23
2019-05-11T20:58:58.794Z,10.20
2019-05-11T21:01:28.862Z,10.12
2019-05-11T21:03:58.797Z,10.01
2019-05-11T21:06:29.545Z,10.02
2019-05-11T21:08:59.101Z,10.03
2019-05-11T21:11:28.332Z,9.96
2019-05-11T21:13:57.544Z,9.97
2019-05-11T21:16:26.793Z,9.93
2019-05-11T21:18:58.019Z,9.83
2019-05-11T21:21:27.890Z,9.85
2019-05-11T21:23:58.328Z,9.81
2019-05-11T21:26:28.206Z,9.76
2019-05-11T21:28:58.046Z,9.66
2019-05-11T21:31:29.109Z,9.64
2019-05-11T21:33:58.503Z,9.63
2019-05-11T21:36:28.466Z,9.46
2019-05-11T21:38:58.834Z,9.48
2019-05-11T21:41:31.012Z,9.51
2019-05-11T21:43:59.997Z,9.45
2019-05-11T21:46:30.364Z,9.40
2019-05-11T21:49:00.344Z,9.48
2019-05-11T21:51:29.684Z,9.42
2019-05-11T21:53:59.251Z,9.40
2019-05-11T21:56:28.978Z,9.28
2019-05-11T21:58:58.286Z,9.23
2019-05-11T22:01:28.277Z,9.15
2019-05-11T22:03:59.537Z,9.16
2019-05-11T22:06:34.856Z,9.09
2019-05-11T22:09:08.218Z,9.00
2019-05-11T22:11:38.172Z,9.00
2019-05-11T22:14:08.296Z,8.94
2019-05-11T22:16:38.755Z,8.87
2019-05-11T22:19:08.943Z,8.85
2019-05-11T22:21:38.419Z,8.71
2019-05-11T22:24:08.809Z,8.75
2019-05-11T22:26:38.131Z,8.72
2019-05-11T22:29:07.872Z,8.62
2019-05-11T22:31:38.611Z,8.61
2019-05-11T22:34:08.909Z,8.48
2019-05-11T22:36:38.682Z,8.50
2019-05-11T22:39:09.068Z,8.45
2019-05-11T22:41:39.677Z,8.42
2019-05-11T22:44:10.903Z,8.36
2019-05-11T22:46:40.112Z,8.34
2019-05-11T22:49:09.687Z,8.29
2019-05-11T22:51:39.047Z,8.23
2019-05-11T22:54:11.032Z,8.20
2019-05-11T22:56:39.724Z,8.03
2019-05-11T22:59:08.978Z,7.96
2019-05-11T23:01:38.177Z,7.90
2019-05-11T23:04:07.472Z,7.87
2019-05-11T23:06:40.305Z,7.82
2019-05-11T23:09:14.305Z,7.87
2019-05-11T23:11:43.518Z,7.81
2019-05-11T23:14:12.896Z,7.79
2019-05-11T23:16:42.160Z,7.77
2019-05-11T23:19:11.408Z,7.78
2019-05-11T23:21:40.659Z,7.77
2019-05-11T23:24:10.005Z,7.70
2019-05-11T23:26:42.666Z,7.72
2019-05-11T23:29:11.917Z,7.65
2019-05-11T23:31:41.172Z,7.64
2019-05-11T23:34:10.408Z,7.58
2019-05-11T23:36:39.739Z,7.54
2019-05-11T23:39:09.290Z,7.52
2019-05-11T23:41:38.463Z,7.50
2019-05-11T23:44:08.865Z,7.44
2019-05-11T23:46:38.691Z,7.47
2019-05-11T23:49:08.766Z,7.29
2019-05-11T23:51:38.695Z,7.31
2019-05-11T23:54:08.257Z,7.19
2019-05-11T23:56:38.710Z,7.09
2019-05-11T23:59:08.424Z,7.05
